Time;durP1;ratioP1;P1;durP2;ratioP2;P2;SDS_P1;SDS_P2;PMS_P1;PMS_P2;Temp;Humidity;BMP_temperature;BMP_pressure;BME280_temperature;BME280_humidity;BME280_pressure;Samples;Min_cycle;Max_cycle;Signal;HPM_P1;HPM_P2
2023/07/20 00:01:09;;;;;;;1.50;0.93;;;19.00;98.20;;;;;;4895346;28;20960;-85
2023/07/20 00:03:36;;;;;;;1.47;0.90;;;19.00;98.20;;;;;;4913586;29;21033;-84
2023/07/20 00:06:04;;;;;;;1.43;0.90;;;19.00;98.20;;;;;;4892566;28;20517;-84
2023/07/20 00:08:31;;;;;;;1.50;1.00;;;19.00;98.20;;;;;;4915369;29;20855;-84
2023/07/20 00:10:58;;;;;;;1.43;0.90;;;19.00;98.20;;;;;;4889047;29;20466;-84
2023/07/20 00:13:25;;;;;;;1.47;0.93;;;19.00;98.20;;;;;;4911816;29;20522;-85
2023/07/20 00:15:52;;;;;;;1.50;1.00;;;19.00;98.20;;;;;;4889092;29;20465;-85
2023/07/20 00:18:24;;;;;;;1.43;0.93;;;19.00;98.20;;;;;;4909510;29;20576;-84
2023/07/20 00:20:56;;;;;;;1.43;0.90;;;18.90;98.20;;;;;;4891655;29;20557;-85
2023/07/20 00:23:23;;;;;;;1.50;1.00;;;18.90;98.20;;;;;;4903205;29;20486;-84
2023/07/20 00:25:50;;;;;;;1.50;0.90;;;18.90;98.20;;;;;;4898567;28;20563;-85
2023/07/20 00:28:17;;;;;;;1.43;0.90;;;18.90;98.20;;;;;;4914148;29;20519;-84
2023/07/20 00:30:46;;;;;;;1.50;1.00;;;18.90;98.20;;;;;;4899526;29;20544;-84
2023/07/20 00:33:15;;;;;;;1.43;0.90;;;18.90;98.20;;;;;;4887563;29;20489;-85
2023/07/20 00:35:49;;;;;;;1.50;0.90;;;18.80;98.20;;;;;;4897147;29;20461;-85
2023/07/20 00:38:16;;;;;;;1.50;0.90;;;18.80;98.20;;;;;;4886775;29;20485;-84
2023/07/20 00:40:46;;;;;;;1.43;0.90;;;18.80;98.20;;;;;;4894731;29;20988;-85
2023/07/20 00:43:13;;;;;;;1.43;0.90;;;18.70;98.20;;;;;;4885852;29;20485;-84
2023/07/20 00:45:45;;;;;;;1.47;0.93;;;18.70;98.20;;;;;;4895038;29;20569;-84
2023/07/20 00:48:15;;;;;;;1.47;1.00;;;18.70;98.20;;;;;;4884591;29;20557;-84
2023/07/20 00:50:44;;;;;;;1.40;0.90;;;18.70;98.20;;;;;;4893555;29;20502;-87
2023/07/20 00:53:11;;;;;;;1.47;0.90;;;18.70;98.20;;;;;;4913139;28;20496;-86
2023/07/20 00:55:40;;;;;;;1.47;0.90;;;18.70;98.20;;;;;;4898002;29;20491;-87
2023/07/20 00:58:11;;;;;;;1.47;1.00;;;18.70;98.20;;;;;;4910978;28;22287;-86
2023/07/20 01:00:40;;;;;;;1.50;0.90;;;18.70;98.20;;;;;;4900878;29;20538;-83
2023/07/20 01:03:06;;;;;;;1.47;0.90;;;18.70;98.20;;;;;;4903717;29;20496;-83
2023/07/20 01:05:43;;;;;;;1.43;0.97;;;18.70;98.20;;;;;;4895451;29;20470;-83
2023/07/20 01:08:16;;;;;;;1.47;0.90;;;18.80;98.20;;;;;;4899799;29;20482;-83
2023/07/20 01:10:49;;;;;;;1.50;1.00;;;18.80;98.20;;;;;;4896028;29;20469;-84
2023/07/20 01:13:18;;;;;;;1.47;0.90;;;18.80;98.20;;;;;;4887983;29;20513;-85
2023/07/20 01:15:51;;;;;;;1.47;0.90;;;18.80;98.20;;;;;;4893509;29;20532;-85
2023/07/20 01:18:22;;;;;;;1.47;0.90;;;18.80;98.20;;;;;;4882815;29;21028;-85
2023/07/20 01:20:49;;;;;;;1.40;0.90;;;18.70;98.20;;;;;;4889007;29;20473;-85
2023/07/20 01:23:40;;;;;;;1.47;0.90;;;18.70;98.20;;;;;;4914473;29;20896;-85
2023/07/20 01:26:29;;;;;;;1.40;0.90;;;18.70;98.20;;;;;;4890072;28;20478;-85
2023/07/20 01:29:13;;;;;;;1.47;0.90;;;18.70;98.20;;;;;;4907181;29;20465;-86
2023/07/20 01:31:43;;;;;;;1.47;0.90;;;18.70;98.20;;;;;;4887956;29;20880;-84
2023/07/20 01:34:14;;;;;;;1.43;0.90;;;18.70;98.20;;;;;;4914094;29;20553;-84
2023/07/20 01:36:41;;;;;;;1.47;0.93;;;18.70;98.20;;;;;;4890705;29;20488;-85
2023/07/20 01:39:20;;;;;;;1.50;1.00;;;18.70;98.20;;;;;;4900631;29;20501;-84
2023/07/20 01:41:50;;;;;;;1.47;0.90;;;18.60;98.20;;;;;;4898869;29;20555;-85
2023/07/20 01:44:30;;;;;;;1.47;0.90;;;18.60;98.20;;;;;;4911446;29;20473;-83
2023/07/20 01:47:04;;;;;;;1.47;0.90;;;18.50;98.20;;;;;;4905087;29;20484;-84
2023/07/20 01:49:43;;;;;;;1.47;0.90;;;18.50;98.20;;;;;;4908904;29;20475;-84
2023/07/20 01:52:13;;;;;;;1.50;1.00;;;18.40;98.20;;;;;;4908312;29;20551;-83
2023/07/20 01:54:52;;;;;;;1.50;0.90;;;18.40;98.20;;;;;;4909597;29;20764;-84
2023/07/20 01:57:23;;;;;;;1.47;0.90;;;18.50;98.20;;;;;;4914225;29;20918;-84
2023/07/20 02:00:12;;;;;;;1.50;0.90;;;18.50;98.20;;;;;;4906828;29;20462;-85
2023/07/20 02:03:26;;;;;;;;;;;;;;;;;;;;;
2023/07/20 02:06:18;;;;;;;1.47;0.90;;;18.40;98.20;;;;;;4889807;29;20459;-84
2023/07/20 02:14:12;;;;;;;1.50;1.00;;;18.30;98.20;;;;;;4913791;29;20458;-83
2023/07/20 02:16:41;;;;;;;1.47;0.90;;;18.20;98.20;;;;;;4904565;29;20487;-84
2023/07/20 02:19:32;;;;;;;1.50;0.90;;;18.20;98.20;;;;;;4910017;29;20816;-85
2023/07/20 02:22:10;;;;;;;1.47;0.90;;;18.20;98.20;;;;;;4908005;29;20526;-84
2023/07/20 02:24:46;;;;;;;1.47;0.90;;;18.10;98.20;;;;;;4907301;29;20489;-83
2023/07/20 02:27:16;;;;;;;1.50;0.90;;;18.10;98.20;;;;;;4907326;28;21019;-84
2023/07/20 02:29:50;;;;;;;1.50;1.00;;;18.00;98.20;;;;;;4913508;29;20519;-84
2023/07/20 02:32:25;;;;;;;1.50;0.90;;;18.00;98.20;;;;;;4919500;29;20480;-85
2023/07/20 02:38:22;;;;;;;1.50;0.90;;;17.90;98.20;;;;;;4931178;29;20572;-83
2023/07/20 02:41:02;;;;;;;1.50;0.90;;;17.80;98.20;;;;;;4895498;29;20525;-85
2023/07/20 02:43:42;;;;;;;1.47;1.00;;;17.80;98.20;;;;;;4943778;29;20496;-85
2023/07/20 02:46:22;;;;;;;1.50;1.00;;;17.80;98.20;;;;;;4893709;29;21572;-85
2023/07/20 02:49:02;;;;;;;1.50;1.00;;;17.80;98.20;;;;;;4910944;29;20469;-86
2023/07/20 02:51:48;;;;;;;1.50;1.00;;;17.80;98.20;;;;;;4900823;29;20485;-85
2023/07/20 02:54:24;;;;;;;1.43;0.90;;;17.80;98.20;;;;;;4912726;29;20477;-85
2023/07/20 02:56:54;;;;;;;1.50;0.90;;;17.80;98.20;;;;;;4895864;29;20485;-86
2023/07/20 02:59:31;;;;;;;1.50;1.00;;;17.80;98.20;;;;;;4913911;29;20484;-85
2023/07/20 03:02:09;;;;;;;1.50;0.90;;;17.80;98.20;;;;;;4907068;29;21242;-85
2023/07/20 03:04:57;;;;;;;1.50;0.90;;;17.80;98.20;;;;;;4913430;29;21249;-85
2023/07/20 03:07:27;;;;;;;1.50;0.90;;;17.70;98.20;;;;;;4929293;23;20748;-82
2023/07/20 03:09:54;;;;;;;1.50;0.90;;;17.70;98.20;;;;;;4903435;29;20529;-83
2023/07/20 03:12:21;;;;;;;1.50;1.00;;;17.70;98.20;;;;;;4908343;29;20485;-80
2023/07/20 03:14:48;;;;;;;1.50;0.90;;;17.70;98.20;;;;;;4907558;29;20632;-81
2023/07/20 03:17:15;;;;;;;1.43;0.90;;;17.70;98.20;;;;;;4904198;29;20516;-81
2023/07/20 03:19:42;;;;;;;1.50;0.90;;;17.70;98.20;;;;;;4910618;29;20485;-83
2023/07/20 03:22:09;;;;;;;1.47;0.90;;;17.70;98.20;;;;;;4908982;29;20512;-78
2023/07/20 03:24:37;;;;;;;1.50;1.00;;;17.70;98.20;;;;;;4905623;29;20754;-83
2023/07/20 03:27:04;;;;;;;1.43;0.90;;;17.70;98.20;;;;;;4898612;29;20567;-81
2023/07/20 03:29:33;;;;;;;1.50;0.90;;;17.70;98.20;;;;;;4907632;29;20465;-80
2023/07/20 03:32:00;;;;;;;1.50;1.00;;;17.70;98.20;;;;;;4894572;29;20596;-81
2023/07/20 03:34:26;;;;;;;1.47;0.90;;;17.70;98.20;;;;;;4905817;29;20476;-82
2023/07/20 03:36:53;;;;;;;1.50;1.00;;;17.70;98.20;;;;;;4904329;29;21053;-79
2023/07/20 03:39:20;;;;;;;1.50;0.90;;;17.70;98.20;;;;;;4915245;29;20489;-79
2023/07/20 03:41:48;;;;;;;1.50;1.00;;;17.70;98.20;;;;;;4905955;29;20492;-81
2023/07/20 03:44:15;;;;;;;1.47;1.00;;;17.70;98.20;;;;;;4914788;29;20480;-81
2023/07/20 03:46:42;;;;;;;1.50;1.00;;;17.70;98.20;;;;;;4903803;29;20495;-83
2023/07/20 03:49:08;;;;;;;1.47;1.00;;;17.70;98.20;;;;;;4916136;29;20461;-82
2023/07/20 03:51:35;;;;;;;1.50;0.90;;;17.70;98.20;;;;;;4905462;29;20485;-79
2023/07/20 03:54:03;;;;;;;1.43;1.00;;;17.70;98.20;;;;;;4910379;29;20465;-82
2023/07/20 03:56:34;;;;;;;1.50;1.00;;;17.70;98.20;;;;;;4900635;29;20785;-81
2023/07/20 03:59:02;;;;;;;1.50;1.00;;;17.70;98.20;;;;;;4910595;29;20587;-83
2023/07/20 04:01:29;;;;;;;1.50;0.90;;;17.70;98.20;;;;;;4898115;29;20489;-81
2023/07/20 04:03:57;;;;;;;1.47;0.90;;;17.60;98.20;;;;;;4911818;29;20534;-82
2023/07/20 04:06:24;;;;;;;1.43;0.90;;;17.60;98.20;;;;;;4900436;29;20891;-82
2023/07/20 04:08:50;;;;;;;1.50;1.00;;;17.70;98.20;;;;;;4916350;29;20464;-79
2023/07/20 04:11:17;;;;;;;1.50;0.90;;;17.70;98.20;;;;;;4897760;29;20500;-81
2023/07/20 04:13:44;;;;;;;1.50;0.90;;;17.70;98.20;;;;;;4916649;29;20703;-82
2023/07/20 04:16:12;;;;;;;1.50;1.00;;;17.70;98.20;;;;;;4899583;29;20496;-81
2023/07/20 04:18:39;;;;;;;1.47;0.90;;;17.70;98.20;;;;;;4916104;29;20598;-80
2023/07/20 04:21:09;;;;;;;1.47;0.93;;;17.70;98.20;;;;;;4896881;29;20484;-85
2023/07/20 04:23:36;;;;;;;1.50;1.00;;;17.70;98.20;;;;;;4921826;29;20470;-83
2023/07/20 04:26:03;;;;;;;1.50;0.90;;;17.80;98.20;;;;;;4897796;29;20509;-81
2023/07/20 04:28:30;;;;;;;1.47;0.93;;;17.80;98.20;;;;;;4918606;29;20461;-79
2023/07/20 04:31:12;;;;;;;1.50;1.00;;;17.80;98.20;;;;;;4897621;29;20485;-82
2023/07/20 04:33:39;;;;;;;1.47;1.00;;;17.90;98.20;;;;;;4920382;29;20465;-79
2023/07/20 04:36:07;;;;;;;1.60;1.10;;;17.90;98.20;;;;;;4898762;29;20572;-80
2023/07/20 04:38:34;;;;;;;1.40;0.90;;;17.90;98.20;;;;;;4923761;29;20492;-81
2023/07/20 04:41:00;;;;;;;1.50;1.00;;;17.90;98.20;;;;;;4903444;29;20470;-82
2023/07/20 04:43:28;;;;;;;1.43;0.90;;;18.00;98.20;;;;;;4922076;29;20461;-81
2023/07/20 04:45:55;;;;;;;1.43;0.93;;;18.00;98.20;;;;;;4896077;29;20580;-81
2023/07/20 04:48:23;;;;;;;1.50;1.00;;;18.00;98.20;;;;;;4906587;29;20471;-81
2023/07/20 04:50:49;;;;;;;1.47;0.90;;;18.10;98.20;;;;;;4893061;29;21014;-82
2023/07/20 04:53:16;;;;;;;1.50;0.90;;;18.00;98.20;;;;;;4923723;29;20492;-82
2023/07/20 04:55:50;;;;;;;1.50;0.90;;;18.00;98.20;;;;;;4905903;29;20480;-82
2023/07/20 04:58:18;;;;;;;1.47;0.93;;;18.00;98.20;;;;;;4899307;29;21048;-81
2023/07/20 05:00:44;;;;;;;1.43;0.90;;;18.10;98.20;;;;;;4903015;29;20482;-82
2023/07/20 05:03:11;;;;;;;1.47;0.90;;;18.10;98.20;;;;;;4910766;29;20498;-82
2023/07/20 05:05:39;;;;;;;1.43;0.90;;;18.10;98.20;;;;;;4907988;29;20468;-82
2023/07/20 05:08:06;;;;;;;1.43;1.00;;;18.10;98.20;;;;;;4910247;29;20485;-82
2023/07/20 05:10:33;;;;;;;1.47;0.90;;;18.10;98.20;;;;;;4894947;29;20466;-82
2023/07/20 05:13:00;;;;;;;1.50;1.00;;;18.10;98.20;;;;;;4904924;29;21027;-83
2023/07/20 05:15:28;;;;;;;1.43;0.90;;;18.10;98.20;;;;;;4895964;29;20526;-84
2023/07/20 05:17:55;;;;;;;1.50;0.90;;;18.10;98.20;;;;;;4905733;29;20504;-83
2023/07/20 05:20:22;;;;;;;1.47;0.90;;;18.20;98.20;;;;;;4902146;29;20493;-85
2023/07/20 05:22:50;;;;;;;1.47;0.90;;;18.20;98.20;;;;;;4908192;29;20488;-82
2023/07/20 05:25:18;;;;;;;1.50;0.90;;;18.20;98.20;;;;;;4900107;29;20465;-82
2023/07/20 05:27:46;;;;;;;1.50;1.00;;;18.20;98.20;;;;;;4906752;29;20483;-83
2023/07/20 05:30:13;;;;;;;1.50;0.97;;;18.30;98.20;;;;;;4903315;29;20469;-83
2023/07/20 05:32:40;;;;;;;1.50;1.00;;;18.30;98.20;;;;;;4909967;29;20488;-84
2023/07/20 05:35:08;;;;;;;1.47;0.90;;;18.40;98.20;;;;;;4906346;29;20480;-81
2023/07/20 05:37:35;;;;;;;1.50;0.90;;;18.40;98.20;;;;;;4908965;29;20558;-84
2023/07/20 05:40:04;;;;;;;1.47;0.90;;;18.40;98.20;;;;;;4906653;29;20508;-83
2023/07/20 05:42:31;;;;;;;1.43;0.90;;;18.40;98.20;;;;;;4908187;29;20747;-83
2023/07/20 05:44:58;;;;;;;1.50;0.90;;;18.50;98.20;;;;;;4907760;29;20478;-82
2023/07/20 05:47:25;;;;;;;1.50;0.90;;;18.60;98.20;;;;;;4907150;29;20492;-83
2023/07/20 05:49:52;;;;;;;1.43;0.90;;;18.60;98.20;;;;;;4910976;29;20477;-85
2023/07/20 05:52:18;;;;;;;1.43;0.90;;;18.80;98.20;;;;;;4908514;29;20513;-86
2023/07/20 05:54:45;;;;;;;1.60;1.20;;;19.00;98.20;;;;;;4909941;29;20469;-84
2023/07/20 05:57:13;;;;;;;1.50;1.00;;;19.10;98.20;;;;;;4903119;29;20499;-84
2023/07/20 05:59:43;;;;;;;1.47;0.90;;;19.30;98.20;;;;;;4909358;29;20512;-85
2023/07/20 06:02:10;;;;;;;1.50;0.90;;;19.40;98.20;;;;;;4904610;29;20994;-82
2023/07/20 06:04:37;;;;;;;1.50;0.90;;;19.50;98.20;;;;;;4899731;29;20461;-84
2023/07/20 06:07:04;;;;;;;1.43;0.90;;;19.50;98.20;;;;;;4897839;28;20488;-83
2023/07/20 06:09:31;;;;;;;1.47;0.90;;;19.60;98.20;;;;;;4903638;29;20462;-84
2023/07/20 06:11:58;;;;;;;1.47;0.90;;;19.60;98.20;;;;;;4896715;29;20497;-85
2023/07/20 06:14:26;;;;;;;1.50;1.00;;;19.60;98.20;;;;;;4905324;29;20474;-83
2023/07/20 06:16:53;;;;;;;1.47;0.90;;;19.60;98.20;;;;;;4895900;29;20580;-83
2023/07/20 06:19:22;;;;;;;1.47;0.90;;;19.50;98.20;;;;;;4899067;29;20498;-85
2023/07/20 06:21:49;;;;;;;1.40;0.90;;;19.50;98.20;;;;;;4894529;29;20895;-85
2023/07/20 06:24:16;;;;;;;1.50;1.00;;;19.50;98.20;;;;;;4898658;29;20498;-85
2023/07/20 06:26:42;;;;;;;1.50;1.00;;;19.60;98.20;;;;;;4891934;29;20489;-85
2023/07/20 06:29:10;;;;;;;1.50;0.90;;;19.60;98.20;;;;;;4902106;29;20480;-84
2023/07/20 06:31:38;;;;;;;1.47;0.90;;;19.80;98.20;;;;;;4893310;29;20763;-84
2023/07/20 06:34:05;;;;;;;1.50;0.90;;;20.00;98.20;;;;;;4901567;29;20952;-85
2023/07/20 06:36:32;;;;;;;1.50;0.90;;;20.30;98.20;;;;;;4895624;29;20491;-82
2023/07/20 06:38:59;;;;;;;1.50;1.00;;;20.50;98.20;;;;;;4903006;29;20976;-85
2023/07/20 06:41:25;;;;;;;1.70;1.60;;;20.70;98.20;;;;;;4900843;29;20486;-84
2023/07/20 06:43:57;;;;;;;1.50;0.90;;;20.80;98.20;;;;;;4905321;29;20471;-86
2023/07/20 06:46:24;;;;;;;1.50;0.90;;;20.90;98.20;;;;;;4896929;29;20811;-82
2023/07/20 06:48:53;;;;;;;1.50;0.90;;;21.00;98.20;;;;;;4903095;29;20812;-85
2023/07/20 06:51:20;;;;;;;1.40;0.90;;;21.00;98.20;;;;;;4897150;29;20521;-82
2023/07/20 06:53:47;;;;;;;1.43;0.90;;;21.00;98.20;;;;;;4900256;29;20473;-85
2023/07/20 06:56:13;;;;;;;1.50;0.90;;;21.00;98.20;;;;;;4890478;29;20484;-81
2023/07/20 06:58:40;;;;;;;1.50;0.90;;;21.00;98.20;;;;;;4911858;29;20476;-87
2023/07/20 07:01:09;;;;;;;1.43;0.90;;;20.90;98.20;;;;;;4893149;29;20483;-83
2023/07/20 07:03:36;;;;;;;1.47;0.90;;;20.90;98.20;;;;;;4909419;29;20941;-84
2023/07/20 07:06:04;;;;;;;1.50;1.00;;;20.90;98.20;;;;;;4897109;29;20535;-83
2023/07/20 07:08:32;;;;;;;1.50;0.90;;;20.80;98.20;;;;;;4908315;29;20466;-85
2023/07/20 07:10:58;;;;;;;1.50;1.00;;;20.80;98.20;;;;;;4896515;29;20497;-86
2023/07/20 07:13:25;;;;;;;1.50;0.90;;;21.00;98.20;;;;;;4904569;29;20521;-84
2023/07/20 07:15:52;;;;;;;1.50;0.90;;;21.40;98.20;;;;;;4895449;29;20692;-85
2023/07/20 07:18:20;;;;;;;1.50;0.90;;;21.70;98.20;;;;;;4905646;29;20467;-84
2023/07/20 07:20:52;;;;;;;1.50;0.90;;;22.20;96.90;;;;;;4903448;29;20566;-83
2023/07/20 07:23:20;;;;;;;1.47;0.83;;;22.40;94.00;;;;;;4889406;29;20492;-87
2023/07/20 07:25:47;;;;;;;1.50;0.90;;;22.50;92.80;;;;;;4897966;29;20465;-84
2023/07/20 07:28:14;;;;;;;1.50;0.90;;;22.60;92.70;;;;;;4907882;29;20538;-82
2023/07/20 07:30:41;;;;;;;1.47;0.90;;;22.50;92.10;;;;;;4904017;29;20469;-86
2023/07/20 07:33:08;;;;;;;1.50;0.90;;;22.30;92.50;;;;;;4895674;29;20493;-85
2023/07/20 07:35:35;;;;;;;1.50;0.90;;;22.10;92.60;;;;;;4903568;29;20767;-85
2023/07/20 07:38:02;;;;;;;1.50;0.90;;;21.90;93.30;;;;;;4896778;29;20496;-86
2023/07/20 07:40:30;;;;;;;1.50;0.90;;;21.80;93.30;;;;;;4899032;29;20600;-87
2023/07/20 07:42:56;;;;;;;1.43;0.90;;;21.80;94.50;;;;;;4900831;29;20516;-85
2023/07/20 07:45:23;;;;;;;1.43;0.90;;;22.00;94.30;;;;;;4901981;29;20465;-88
2023/07/20 07:47:50;;;;;;;1.50;0.90;;;22.30;94.30;;;;;;4897693;29;20579;-82
2023/07/20 07:50:17;;;;;;;1.50;0.90;;;22.60;94.00;;;;;;4904030;29;20462;-85
2023/07/20 07:52:44;;;;;;;1.50;0.90;;;22.90;91.40;;;;;;4900306;29;20488;-81
2023/07/20 07:55:10;;;;;;;1.50;0.90;;;23.00;90.00;;;;;;4895835;29;20469;-85
2023/07/20 07:57:39;;;;;;;1.50;0.90;;;22.90;90.10;;;;;;4899880;29;20528;-81
2023/07/20 08:00:11;;;;;;;1.43;0.83;;;22.80;90.30;;;;;;4902141;29;20592;-82
2023/07/20 08:02:38;;;;;;;1.50;0.90;;;22.70;90.20;;;;;;4901441;29;20884;-79
2023/07/20 08:05:05;;;;;;;1.50;0.90;;;22.80;90.20;;;;;;4896869;29;20552;-80
2023/07/20 08:07:32;;;;;;;1.47;0.83;;;22.90;89.90;;;;;;4900839;29;20483;-84
2023/07/20 08:10:00;;;;;;;1.50;0.90;;;23.00;89.70;;;;;;4901335;29;20470;-83
2023/07/20 08:12:27;;;;;;;1.50;0.90;;;23.10;88.70;;;;;;4903485;29;20633;-82
2023/07/20 08:14:55;;;;;;;1.50;0.90;;;23.00;88.90;;;;;;4904151;29;20477;-83
2023/07/20 08:17:22;;;;;;;1.47;0.90;;;22.90;88.90;;;;;;4900515;29;20497;-83
2023/07/20 08:19:48;;;;;;;1.47;0.90;;;22.70;89.10;;;;;;4902515;29;20550;-81
2023/07/20 08:22:15;;;;;;;1.47;0.80;;;22.80;89.60;;;;;;4897403;29;20568;-81
2023/07/20 08:24:42;;;;;;;1.50;0.90;;;23.00;88.80;;;;;;4905083;29;21242;-84
2023/07/20 08:27:10;;;;;;;1.50;1.00;;;23.40;89.00;;;;;;4900201;29;20581;-82
2023/07/20 08:29:37;;;;;;;1.50;0.90;;;23.70;87.90;;;;;;4903459;29;20522;-80
2023/07/20 08:32:07;;;;;;;1.50;0.80;;;23.80;87.20;;;;;;4898535;29;20493;-83
2023/07/20 08:34:33;;;;;;;1.50;0.90;;;23.90;86.10;;;;;;4900472;29;20525;-80
2023/07/20 08:37:00;;;;;;;1.47;0.80;;;24.10;85.90;;;;;;4897174;29;20573;-85
2023/07/20 08:39:27;;;;;;;1.40;0.90;;;24.20;85.50;;;;;;4905440;29;20469;-81
2023/07/20 08:41:55;;;;;;;1.50;0.90;;;24.20;85.50;;;;;;4899533;29;20496;-81
2023/07/20 08:44:22;;;;;;;1.50;0.87;;;24.10;84.30;;;;;;4906705;29;20480;-82
2023/07/20 08:46:50;;;;;;;1.50;0.87;;;24.10;84.50;;;;;;4896598;29;20829;-80
2023/07/20 08:49:19;;;;;;;1.50;0.90;;;24.00;84.60;;;;;;4915862;29;20481;-80
2023/07/20 08:51:47;;;;;;;1.50;0.90;;;24.10;85.30;;;;;;4904941;29;20874;-80
2023/07/20 08:54:15;;;;;;;1.47;0.90;;;24.30;85.70;;;;;;4915687;29;20504;-84
2023/07/20 08:56:43;;;;;;;1.43;0.80;;;24.70;84.00;;;;;;4898866;29;20496;-83
2023/07/20 08:59:10;;;;;;;1.50;0.90;;;25.10;83.90;;;;;;4903500;29;20466;-87
2023/07/20 09:01:39;;;;;;;1.43;0.83;;;25.50;83.90;;;;;;4897021;29;20481;-82
2023/07/20 09:04:07;;;;;;;1.47;0.80;;;25.80;82.40;;;;;;4905675;29;20475;-83
2023/07/20 09:06:36;;;;;;;1.50;0.80;;;25.90;80.00;;;;;;4890532;29;20488;-85
2023/07/20 09:09:03;;;;;;;1.50;0.90;;;25.70;80.60;;;;;;4903491;29;20569;-84
2023/07/20 09:11:30;;;;;;;1.50;0.90;;;25.30;81.80;;;;;;4897268;29;21329;-84
2023/07/20 09:14:04;;;;;;;1.47;0.80;;;25.30;81.90;;;;;;4905271;29;20957;-84
2023/07/20 09:16:47;;;;;;;1.50;0.90;;;25.60;81.20;;;;;;4898532;23;20500;-85
2023/07/20 09:19:20;;;;;;;1.50;1.00;;;25.80;78.70;;;;;;4896418;29;20462;-85
2023/07/20 09:21:50;;;;;;;1.50;0.90;;;26.00;79.40;;;;;;4891285;29;20494;-86
2023/07/20 09:24:30;;;;;;;1.50;0.90;;;26.30;79.00;;;;;;4899640;29;21075;-89
2023/07/20 09:27:06;;;;;;;1.50;0.80;;;26.30;77.10;;;;;;4890945;29;20555;-87
2023/07/20 09:29:33;;;;;;;1.47;0.90;;;26.20;75.80;;;;;;4902164;29;21097;-88
2023/07/20 09:32:11;;;;;;;1.47;0.87;;;26.20;77.30;;;;;;4895920;29;20520;-87
2023/07/20 09:34:41;;;;;;;1.50;0.90;;;26.10;75.70;;;;;;4900073;29;21082;-87
2023/07/20 09:37:20;;;;;;;1.43;0.90;;;25.90;77.80;;;;;;4898448;29;20496;-88
2023/07/20 09:39:56;;;;;;;1.47;0.80;;;26.20;78.10;;;;;;4903592;29;20592;-87
2023/07/20 09:42:25;;;;;;;1.50;0.83;;;26.40;76.80;;;;;;4897957;29;20479;-87
2023/07/20 09:44:54;;;;;;;1.50;0.80;;;26.40;76.90;;;;;;4899352;29;20549;-88
2023/07/20 09:47:24;;;;;;;1.50;0.83;;;26.40;76.40;;;;;;4893195;29;20528;-86
2023/07/20 09:49:57;;;;;;;1.50;0.90;;;26.30;76.00;;;;;;4894074;29;20480;-85
2023/07/20 09:52:47;;;;;;;1.43;0.80;;;26.20;73.80;;;;;;4890380;29;20488;-88
2023/07/20 09:55:49;;;;;;;1.47;0.90;;;26.20;75.50;;;;;;4885698;29;20469;-88
2023/07/20 10:01:22;;;;;;;1.47;0.80;;;26.70;74.30;;;;;;4802551;29;20480;-88
2023/07/20 10:07:03;;;;;;;1.47;0.80;;;27.30;73.40;;;;;;4881450;29;20500;-87
2023/07/20 10:09:33;;;;;;;1.43;0.80;;;27.70;71.60;;;;;;4889163;29;20969;-84
2023/07/20 10:12:03;;;;;;;1.47;0.80;;;27.80;72.10;;;;;;4889942;29;20536;-85
2023/07/20 10:14:41;;;;;;;1.47;0.90;;;28.00;71.70;;;;;;4900060;29;20944;-87
2023/07/20 10:17:12;;;;;;;1.43;0.83;;;28.00;70.20;;;;;;4894859;29;20498;-86
2023/07/20 10:19:45;;;;;;;1.40;0.80;;;28.00;70.50;;;;;;4897130;29;21143;-86
2023/07/20 10:22:19;;;;;;;1.47;0.90;;;27.90;71.50;;;;;;4895588;29;20492;-87
2023/07/20 10:24:48;;;;;;;1.50;0.80;;;28.10;70.70;;;;;;4903281;29;20797;-86
2023/07/20 10:27:15;;;;;;;1.47;0.80;;;28.30;71.00;;;;;;4894160;29;20486;-85
2023/07/20 10:29:49;;;;;;;1.43;0.80;;;28.60;70.40;;;;;;4896835;29;20533;-87
2023/07/20 10:32:16;;;;;;;1.50;0.80;;;29.00;70.30;;;;;;4894164;29;20551;-84
2023/07/20 10:34:43;;;;;;;1.47;0.90;;;29.20;67.80;;;;;;4896177;29;20984;-86
2023/07/20 10:37:17;;;;;;;1.47;0.80;;;29.30;68.00;;;;;;4893551;29;20585;-86
2023/07/20 10:39:47;;;;;;;1.47;0.80;;;29.20;68.50;;;;;;4898236;29;20527;-84
2023/07/20 10:42:15;;;;;;;1.40;0.80;;;29.10;67.30;;;;;;4894088;29;20496;-86
2023/07/20 10:44:42;;;;;;;1.47;0.80;;;28.80;68.30;;;;;;4897453;29;20919;-86
2023/07/20 10:47:13;;;;;;;1.50;0.80;;;28.40;69.30;;;;;;4893741;29;20559;-87
2023/07/20 10:50:09;;;;;;;1.50;0.90;;;28.00;70.00;;;;;;4908336;29;20492;-86
2023/07/20 10:53:20;;;;;;;1.43;0.90;;;27.90;70.50;;;;;;4892101;29;20496;-84
2023/07/20 10:55:50;;;;;;;1.40;0.80;;;27.50;68.90;;;;;;4844228;29;20492;-86
2023/07/20 10:58:19;;;;;;;1.47;0.80;;;27.60;71.70;;;;;;4907709;29;20644;-86
2023/07/20 11:01:06;;;;;;;1.50;0.80;;;27.70;70.30;;;;;;4893613;29;20492;-87
2023/07/20 11:03:38;;;;;;;1.43;0.80;;;27.90;68.60;;;;;;4899844;29;20476;-87
2023/07/20 11:06:43;;;;;;;1.50;0.80;;;27.80;69.20;;;;;;4887456;29;20915;-88
2023/07/20 11:09:14;;;;;;;1.43;0.80;;;27.70;70.30;;;;;;4917437;29;20473;-88
2023/07/20 11:11:42;;;;;;;1.50;0.80;;;27.60;68.90;;;;;;4901595;29;20472;-86
2023/07/20 11:14:11;;;;;;;1.50;0.90;;;27.40;70.20;;;;;;4921691;29;20503;-88
2023/07/20 11:16:46;;;;;;;1.47;0.80;;;27.20;70.10;;;;;;4898077;29;20527;-90
2023/07/20 11:19:18;;;;;;;1.43;0.80;;;27.10;70.10;;;;;;4904610;29;20479;-88
2023/07/20 11:21:57;;;;;;;1.50;0.90;;;27.00;70.80;;;;;;4889277;29;20504;-89
2023/07/20 11:24:27;;;;;;;1.43;0.80;;;27.00;70.30;;;;;;4893623;29;20533;-88
2023/07/20 11:26:55;;;;;;;1.47;0.80;;;26.90;70.60;;;;;;4891369;29;20527;-89
2023/07/20 11:29:27;;;;;;;1.50;0.80;;;26.80;71.60;;;;;;4898574;29;20473;-87
2023/07/20 11:31:54;;;;;;;1.43;0.80;;;26.70;70.90;;;;;;4892973;29;20489;-90
2023/07/20 11:34:22;;;;;;;1.40;0.80;;;26.60;71.80;;;;;;4901611;29;20568;-89
2023/07/20 11:36:50;;;;;;;1.43;0.80;;;26.70;72.40;;;;;;4893443;29;20873;-89
2023/07/20 11:39:33;;;;;;;1.47;0.90;;;27.10;72.90;;;;;;4902321;29;20565;-89
2023/07/20 11:42:00;;;;;;;1.43;0.80;;;27.50;70.50;;;;;;4891910;29;20502;-89
2023/07/20 11:44:34;;;;;;;1.40;0.90;;;27.70;69.60;;;;;;4905729;29;20465;-87
2023/07/20 11:47:10;;;;;;;1.43;0.80;;;27.60;68.70;;;;;;4892420;29;20495;-90
2023/07/20 11:49:40;;;;;;;1.43;0.80;;;27.40;68.40;;;;;;4889198;29;20484;-87
2023/07/20 11:52:08;;;;;;;1.47;0.80;;;27.30;70.00;;;;;;4895636;29;20607;-88
2023/07/20 11:54:44;;;;;;;1.43;0.80;;;27.10;68.50;;;;;;4900873;29;20524;-89
2023/07/20 11:57:17;;;;;;;1.47;0.80;;;26.90;70.60;;;;;;4890253;29;21202;-88
2023/07/20 11:59:57;;;;;;;1.40;0.80;;;26.70;70.30;;;;;;4899352;29;20480;-87
2023/07/20 12:02:24;;;;;;;1.43;0.80;;;26.60;71.60;;;;;;4897087;29;20499;-87
2023/07/20 12:04:55;;;;;;;1.47;0.80;;;26.70;71.60;;;;;;4898204;29;20838;-88
2023/07/20 12:07:22;;;;;;;1.43;0.80;;;26.60;70.00;;;;;;4898819;29;20901;-88
2023/07/20 12:10:04;;;;;;;1.43;0.80;;;26.60;68.80;;;;;;4899375;29;20948;-88
2023/07/20 12:12:32;;;;;;;1.50;0.80;;;26.70;69.00;;;;;;4898018;29;20487;-87
2023/07/20 12:15:16;;;;;;;1.47;0.80;;;26.70;69.20;;;;;;4893493;29;20912;-88
2023/07/20 12:17:44;;;;;;;1.43;0.80;;;26.70;69.90;;;;;;4900573;29;20515;-86
2023/07/20 12:20:12;;;;;;;1.43;0.80;;;26.70;69.20;;;;;;4895827;29;20457;-88
2023/07/20 12:22:45;;;;;;;1.43;0.90;;;26.80;70.60;;;;;;4900389;29;20655;-88
2023/07/20 12:25:15;;;;;;;1.43;0.80;;;26.80;69.60;;;;;;4901221;29;20935;-88
2023/07/20 12:27:45;;;;;;;1.40;0.80;;;27.20;69.40;;;;;;4903159;29;20480;-88
2023/07/20 12:30:13;;;;;;;1.50;0.83;;;27.50;67.20;;;;;;4893244;29;20472;-88
2023/07/20 12:32:50;;;;;;;1.47;0.80;;;27.60;68.30;;;;;;4883804;29;20904;-88
2023/07/20 12:35:17;;;;;;;1.47;0.80;;;27.60;67.50;;;;;;4892054;29;20469;-87
2023/07/20 12:37:44;;;;;;;1.43;0.80;;;27.50;67.30;;;;;;4893041;29;20493;-87
2023/07/20 12:40:11;;;;;;;1.43;0.80;;;27.30;67.30;;;;;;4895574;29;20469;-88
2023/07/20 12:42:39;;;;;;;1.40;0.80;;;27.10;68.70;;;;;;4896599;29;20495;-88
2023/07/20 12:45:06;;;;;;;1.50;1.00;;;26.90;68.40;;;;;;4898045;29;20468;-88
2023/07/20 12:47:33;;;;;;;1.43;0.80;;;26.60;69.00;;;;;;4896610;29;20578;-88
2023/07/20 12:50:04;;;;;;;1.47;0.80;;;26.40;69.70;;;;;;4894747;29;20465;-88
2023/07/20 12:52:39;;;;;;;1.50;0.90;;;26.20;69.50;;;;;;4900357;29;20475;-89
2023/07/20 12:55:08;;;;;;;1.40;0.90;;;26.00;70.00;;;;;;4898951;29;20473;-89
2023/07/20 12:57:36;;;;;;;1.47;0.80;;;25.90;71.00;;;;;;4893113;29;20548;-88
2023/07/20 13:00:04;;;;;;;1.47;0.80;;;25.80;71.00;;;;;;4894266;29;20472;-87
2023/07/20 13:02:31;;;;;;;1.43;0.80;;;25.70;71.70;;;;;;4894334;29;20480;-88
2023/07/20 13:04:58;;;;;;;1.50;0.80;;;25.80;71.60;;;;;;4897415;29;20473;-89
2023/07/20 13:07:33;;;;;;;1.43;0.80;;;25.90;71.80;;;;;;4898714;29;20488;-88
2023/07/20 13:10:00;;;;;;;1.43;0.80;;;26.20;72.30;;;;;;4893292;29;20456;-88
2023/07/20 13:12:27;;;;;;;1.50;0.80;;;26.40;71.20;;;;;;4898914;29;20563;-89
2023/07/20 13:14:55;;;;;;;1.47;0.80;;;26.60;71.00;;;;;;4898704;29;20529;-87
2023/07/20 13:17:22;;;;;;;1.47;0.90;;;26.80;70.00;;;;;;4897412;29;20607;-87
2023/07/20 13:19:49;;;;;;;1.60;1.30;;;26.90;70.10;;;;;;4897984;29;20546;-88